createdAt,value
2023-07-30T00:00:56.538Z,17.22
2023-07-30T00:01:56.513Z,17.24
2023-07-30T00:02:56.660Z,17.23
2023-07-30T00:03:56.606Z,17.04
2023-07-30T00:04:56.485Z,17.11
2023-07-30T00:05:56.525Z,17.04
2023-07-30T00:06:56.462Z,17.12
2023-07-30T00:07:56.509Z,17.05
2023-07-30T00:08:56.453Z,17.05
2023-07-30T00:09:56.438Z,17.09
2023-07-30T00:10:56.424Z,16.99
2023-07-30T00:11:56.448Z,17.06
2023-07-30T00:12:56.401Z,17.06
2023-07-30T00:13:56.450Z,17.02
2023-07-30T00:14:56.398Z,17.04
2023-07-30T00:15:56.472Z,17.04
2023-07-30T00:16:56.341Z,17.05
2023-07-30T00:17:56.414Z,16.99
2023-07-30T00:18:56.331Z,16.89
2023-07-30T00:19:56.335Z,16.87
2023-07-30T00:20:56.386Z,16.97
2023-07-30T00:21:56.350Z,16.94
2023-07-30T00:22:56.298Z,16.93
2023-07-30T00:23:56.303Z,16.97
2023-07-30T00:24:56.271Z,16.91
2023-07-30T00:25:56.322Z,16.94
2023-07-30T00:26:56.266Z,16.90
2023-07-30T00:27:56.325Z,16.86
2023-07-30T00:28:56.239Z,16.79
2023-07-30T00:29:56.228Z,16.76
2023-07-30T00:30:56.221Z,16.75
2023-07-30T00:31:56.204Z,16.72
2023-07-30T00:32:56.264Z,16.66
2023-07-30T00:33:56.171Z,16.68
2023-07-30T00:34:56.161Z,16.66
2023-07-30T00:35:56.193Z,16.68
2023-07-30T00:36:56.156Z,16.71
2023-07-30T00:37:56.237Z,16.66
2023-07-30T00:38:56.121Z,16.64
2023-07-30T00:39:56.102Z,16.69
2023-07-30T00:40:56.149Z,16.68
2023-07-30T00:41:56.090Z,16.61
2023-07-30T00:42:56.152Z,16.58
2023-07-30T00:43:56.074Z,16.57
2023-07-30T00:44:56.054Z,16.54
2023-07-30T00:45:56.056Z,16.51
2023-07-30T00:46:56.116Z,16.57
2023-07-30T00:47:56.063Z,16.57
2023-07-30T00:48:56.066Z,16.50
2023-07-30T00:49:56.004Z,16.49
2023-07-30T00:50:56.004Z,16.50
2023-07-30T00:51:56.096Z,16.51
2023-07-30T00:52:56.034Z,16.50
2023-07-30T00:53:56.003Z,16.51
2023-07-30T00:54:55.974Z,16.49
2023-07-30T00:55:55.953Z,16.46
2023-07-30T00:56:55.978Z,16.43
2023-07-30T00:57:55.917Z,16.49
2023-07-30T00:58:55.943Z,16.47
2023-07-30T00:59:55.885Z,16.49
2023-07-30T01:00:55.985Z,16.43
2023-07-30T01:01:55.862Z,16.46
2023-07-30T01:02:55.906Z,16.46
2023-07-30T01:03:55.871Z,16.38
2023-07-30T01:04:55.851Z,16.35
2023-07-30T01:05:55.877Z,16.41
2023-07-30T01:06:55.815Z,16.31
2023-07-30T01:07:55.822Z,16.41
2023-07-30T01:08:55.794Z,16.35
2023-07-30T01:09:55.782Z,16.39
2023-07-30T01:10:55.834Z,16.38
2023-07-30T01:11:55.754Z,16.43
2023-07-30T01:12:55.728Z,16.32
2023-07-30T01:13:55.809Z,16.32
2023-07-30T01:14:55.726Z,16.33
2023-07-30T01:15:55.773Z,16.31
2023-07-30T01:16:55.775Z,16.36
2023-07-30T01:17:55.704Z,16.35
2023-07-30T01:18:55.725Z,16.28
2023-07-30T01:19:55.669Z,16.26
2023-07-30T01:20:55.703Z,16.26
2023-07-30T01:21:55.692Z,16.31
2023-07-30T01:22:55.670Z,16.21
2023-07-30T01:23:55.634Z,16.21
2023-07-30T01:24:55.605Z,16.28
2023-07-30T01:25:55.655Z,16.21
2023-07-30T01:26:55.648Z,16.24
2023-07-30T01:27:55.605Z,16.16
2023-07-30T01:28:55.602Z,16.23
2023-07-30T01:29:55.623Z,16.23
2023-07-30T01:30:55.640Z,16.16
2023-07-30T01:31:55.587Z,16.10
2023-07-30T01:32:55.642Z,16.16
2023-07-30T01:33:55.528Z,16.09
2023-07-30T01:34:55.522Z,16.17
2023-07-30T01:35:55.551Z,16.13
2023-07-30T01:36:57.519Z,16.15
2023-07-30T01:37:55.467Z,16.20
2023-07-30T01:38:55.471Z,16.15
2023-07-30T01:39:55.472Z,16.05
2023-07-30T01:40:55.524Z,16.09
2023-07-30T01:41:55.440Z,16.09
2023-07-30T01:42:55.476Z,16.20
2023-07-30T01:43:55.418Z,16.08
2023-07-30T01:44:55.397Z,16.13
2023-07-30T01:45:55.527Z,16.05
2023-07-30T01:46:55.435Z,16.15
2023-07-30T01:47:55.407Z,16.04
2023-07-30T01:48:55.391Z,16.01
2023-07-30T01:49:55.344Z,16.02
2023-07-30T01:50:55.383Z,16.08
2023-07-30T01:51:55.317Z,16.02
2023-07-30T01:52:55.372Z,15.97
2023-07-30T01:53:55.312Z,16.04
2023-07-30T01:54:55.356Z,15.95
2023-07-30T01:55:55.292Z,15.95
2023-07-30T01:56:55.275Z,16.02
2023-07-30T01:57:55.314Z,15.97
2023-07-30T01:58:55.253Z,16.00
2023-07-30T01:59:55.232Z,16.02
2023-07-30T02:00:55.235Z,16.00
2023-07-30T02:01:55.291Z,16.00
2023-07-30T02:02:55.362Z,15.95
2023-07-30T02:03:55.220Z,15.95
2023-07-30T02:04:55.194Z,15.92
2023-07-30T02:05:55.221Z,15.98
2023-07-30T02:06:55.197Z,15.92
2023-07-30T02:07:55.140Z,16.00
2023-07-30T02:08:55.147Z,15.98
2023-07-30T02:09:55.182Z,15.92
2023-07-30T02:10:55.123Z,15.91
2023-07-30T02:11:55.123Z,15.90
2023-07-30T02:12:55.139Z,15.91
2023-07-30T02:13:55.066Z,15.84
2023-07-30T02:14:55.129Z,15.86
2023-07-30T02:15:55.177Z,15.79
2023-07-30T02:16:55.054Z,15.88
2023-07-30T02:17:55.099Z,15.82
2023-07-30T02:18:55.068Z,15.90
2023-07-30T02:19:55.016Z,15.88
2023-07-30T02:20:55.003Z,15.90
2023-07-30T02:21:55.048Z,15.79
2023-07-30T02:22:54.983Z,15.83
2023-07-30T02:23:55.000Z,15.77
2023-07-30T02:24:55.020Z,15.80
2023-07-30T02:25:54.954Z,15.79
2023-07-30T02:26:54.956Z,15.73
2023-07-30T02:27:55.001Z,15.77
2023-07-30T02:28:54.937Z,15.75
2023-07-30T02:29:54.900Z,15.77
2023-07-30T02:30:54.968Z,15.68
2023-07-30T02:31:54.938Z,15.68
2023-07-30T02:32:54.885Z,15.75
2023-07-30T02:33:54.866Z,15.73
2023-07-30T02:34:54.872Z,15.77
2023-07-30T02:35:54.880Z,15.73
2023-07-30T02:36:54.857Z,15.79
2023-07-30T02:37:54.832Z,15.76
2023-07-30T02:38:54.797Z,15.75
2023-07-30T02:39:54.787Z,15.76
2023-07-30T02:40:54.853Z,15.76
2023-07-30T02:41:54.794Z,15.73
2023-07-30T02:42:54.872Z,15.73
2023-07-30T02:43:54.807Z,15.76
2023-07-30T02:44:54.756Z,15.70
2023-07-30T02:45:54.838Z,15.65
2023-07-30T02:46:54.776Z,15.67
2023-07-30T02:47:54.825Z,15.67
2023-07-30T02:48:54.684Z,15.68
2023-07-30T02:49:54.763Z,15.61
2023-07-30T02:50:54.689Z,15.68
2023-07-30T02:51:54.667Z,15.58
2023-07-30T02:52:54.649Z,15.59
2023-07-30T02:53:54.638Z,15.58
2023-07-30T02:54:54.689Z,15.61
2023-07-30T02:55:54.647Z,15.59
2023-07-30T02:56:54.606Z,15.61
2023-07-30T02:57:54.685Z,15.55
2023-07-30T02:58:54.586Z,15.65
2023-07-30T02:59:54.653Z,15.65
2023-07-30T03:00:54.632Z,15.57
2023-07-30T03:01:54.554Z,15.57
2023-07-30T03:02:54.614Z,15.54
2023-07-30T03:03:54.535Z,15.54
2023-07-30T03:04:56.958Z,15.54
2023-07-30T03:05:54.554Z,15.54
2023-07-30T03:06:54.503Z,15.59
2023-07-30T03:07:54.529Z,15.57
2023-07-30T03:08:54.502Z,15.55
2023-07-30T03:09:54.528Z,15.54
2023-07-30T03:10:54.450Z,15.58
2023-07-30T03:11:54.495Z,15.43
2023-07-30T03:12:54.437Z,15.42
2023-07-30T03:13:54.427Z,15.40
2023-07-30T03:14:54.505Z,15.44
2023-07-30T03:15:54.449Z,15.43
2023-07-30T03:16:54.399Z,15.49
2023-07-30T03:17:54.534Z,15.44
2023-07-30T03:18:54.368Z,15.47
2023-07-30T03:19:54.552Z,15.43
2023-07-30T03:20:54.351Z,15.44
2023-07-30T03:21:54.390Z,15.43
2023-07-30T03:22:54.334Z,15.43
2023-07-30T03:23:54.355Z,15.40
2023-07-30T03:24:54.349Z,15.37
2023-07-30T03:25:54.314Z,15.47
2023-07-30T03:26:54.265Z,15.43
2023-07-30T03:27:54.358Z,15.42
2023-07-30T03:28:54.265Z,15.42
2023-07-30T03:29:54.304Z,15.35
2023-07-30T03:30:54.268Z,15.35
2023-07-30T03:31:54.245Z,15.37
2023-07-30T03:32:54.276Z,15.37
2023-07-30T03:33:54.195Z,15.39
2023-07-30T03:34:54.183Z,15.36
2023-07-30T03:35:54.178Z,15.39
2023-07-30T03:36:54.182Z,15.33
2023-07-30T03:37:54.244Z,15.42
2023-07-30T03:38:54.159Z,15.31
2023-07-30T03:39:54.165Z,15.31
2023-07-30T03:40:54.150Z,15.36
2023-07-30T03:41:54.117Z,15.35
2023-07-30T03:42:54.139Z,15.36
2023-07-30T03:43:54.166Z,15.33
2023-07-30T03:44:54.095Z,15.31
2023-07-30T03:45:54.069Z,15.35
2023-07-30T03:46:54.056Z,15.35
2023-07-30T03:47:54.139Z,15.40
2023-07-30T03:48:54.039Z,15.40
2023-07-30T03:49:54.098Z,15.37
2023-07-30T03:50:54.075Z,15.39
2023-07-30T03:51:54.014Z,15.42
2023-07-30T03:52:54.014Z,15.44
2023-07-30T03:53:53.995Z,15.44
2023-07-30T03:54:53.964Z,15.39
2023-07-30T03:55:54.042Z,15.37
2023-07-30T03:56:53.950Z,15.43
2023-07-30T03:57:53.942Z,15.43
2023-07-30T03:58:53.927Z,15.40
2023-07-30T03:59:53.938Z,15.46
2023-07-30T04:00:54.031Z,15.46
2023-07-30T04:01:53.915Z,15.43
2023-07-30T04:02:53.972Z,15.46
2023-07-30T04:03:53.976Z,15.46
2023-07-30T04:04:53.873Z,15.44
2023-07-30T04:05:53.899Z,15.46
2023-07-30T04:06:53.839Z,15.46
2023-07-30T04:07:53.833Z,15.46
2023-07-30T04:08:53.819Z,15.40
2023-07-30T04:09:53.859Z,15.43
2023-07-30T04:10:53.775Z,15.40
2023-07-30T04:11:53.790Z,15.47
2023-07-30T04:12:53.784Z,15.44
2023-07-30T04:13:54.004Z,15.47
2023-07-30T04:14:53.761Z,15.47
2023-07-30T04:15:53.812Z,15.40
2023-07-30T04:16:53.785Z,15.44
2023-07-30T04:17:53.735Z,15.43
2023-07-30T04:18:53.761Z,15.42
2023-07-30T04:19:53.768Z,15.46
2023-07-30T04:20:53.684Z,15.46
2023-07-30T04:21:53.722Z,15.46
2023-07-30T04:22:53.667Z,15.49
2023-07-30T04:23:53.699Z,15.37
2023-07-30T04:24:53.650Z,15.40
2023-07-30T04:25:53.659Z,15.43
2023-07-30T04:26:53.631Z,15.49
2023-07-30T04:27:53.696Z,15.51
2023-07-30T04:28:53.613Z,15.46
2023-07-30T04:29:53.615Z,15.46
2023-07-30T04:30:53.626Z,15.46
2023-07-30T04:31:53.648Z,15.49
2023-07-30T04:32:53.592Z,15.47
2023-07-30T04:33:53.550Z,15.49
2023-07-30T04:34:53.548Z,15.44
2023-07-30T04:35:53.568Z,15.46
2023-07-30T04:36:53.638Z,15.44
2023-07-30T04:37:53.562Z,15.49
2023-07-30T04:38:53.497Z,15.46
2023-07-30T04:39:53.508Z,15.40
2023-07-30T04:40:53.484Z,15.43
2023-07-30T04:41:53.472Z,15.43
2023-07-30T04:42:53.522Z,15.46
2023-07-30T04:43:53.474Z,15.44
2023-07-30T04:44:53.454Z,15.46
2023-07-30T04:45:53.426Z,15.43
2023-07-30T04:46:53.476Z,15.46
2023-07-30T04:47:53.493Z,15.46
2023-07-30T04:48:53.393Z,15.43
2023-07-30T04:49:53.402Z,15.46
2023-07-30T04:50:53.393Z,15.44
2023-07-30T04:51:53.374Z,15.51
2023-07-30T04:52:53.434Z,15.43
2023-07-30T04:53:53.348Z,15.44
2023-07-30T04:54:53.319Z,15.40
2023-07-30T04:55:53.337Z,15.42
2023-07-30T04:56:53.346Z,15.47
2023-07-30T04:57:53.295Z,15.47
2023-07-30T04:58:53.299Z,15.43
2023-07-30T04:59:53.343Z,15.54
2023-07-30T05:00:53.258Z,15.58
2023-07-30T05:01:53.367Z,15.54
2023-07-30T05:02:53.307Z,15.54
2023-07-30T05:03:53.350Z,15.68
2023-07-30T05:04:53.227Z,15.65
2023-07-30T05:05:53.257Z,15.73
2023-07-30T05:06:53.190Z,15.68
2023-07-30T05:07:53.271Z,15.88
2023-07-30T05:08:53.186Z,15.94
2023-07-30T05:09:53.159Z,15.98
2023-07-30T05:10:53.190Z,16.08
2023-07-30T05:11:53.141Z,16.09
2023-07-30T05:12:53.129Z,16.02
2023-07-30T05:13:53.197Z,16.12
2023-07-30T05:14:53.110Z,16.16
2023-07-30T05:15:53.113Z,16.13
2023-07-30T05:16:53.073Z,16.31
2023-07-30T05:17:53.150Z,16.32
2023-07-30T05:18:53.073Z,16.32
2023-07-30T05:19:53.141Z,16.31
2023-07-30T05:20:53.052Z,16.35
2023-07-30T05:21:53.040Z,16.31
2023-07-30T05:22:53.066Z,16.35
2023-07-30T05:23:53.039Z,16.31
2023-07-30T05:24:53.013Z,16.33
2023-07-30T05:25:53.031Z,16.46
2023-07-30T05:26:53.065Z,16.42
2023-07-30T05:27:52.980Z,16.41
2023-07-30T05:28:53.013Z,16.35
2023-07-30T05:29:52.966Z,16.50
2023-07-30T05:30:52.941Z,16.38
2023-07-30T05:31:52.973Z,16.41
2023-07-30T05:32:52.936Z,16.32
2023-07-30T05:33:52.958Z,16.32
2023-07-30T05:34:52.895Z,16.31
2023-07-30T05:35:52.912Z,16.33
2023-07-30T05:36:52.870Z,16.24
2023-07-30T05:37:52.845Z,16.23
2023-07-30T05:38:52.868Z,16.13
2023-07-30T05:39:52.888Z,16.12
2023-07-30T05:40:52.829Z,16.10
2023-07-30T05:41:53.016Z,16.17
2023-07-30T05:42:52.833Z,16.23
2023-07-30T05:43:52.832Z,16.21
2023-07-30T05:44:52.785Z,16.21
2023-07-30T05:45:52.830Z,16.20
2023-07-30T05:46:52.759Z,16.24
2023-07-30T05:47:52.806Z,16.24
2023-07-30T05:48:52.816Z,16.28
2023-07-30T05:49:52.720Z,16.26
2023-07-30T05:50:52.711Z,16.26
2023-07-30T05:51:52.753Z,16.26
2023-07-30T05:52:52.681Z,16.28
2023-07-30T05:53:52.675Z,16.29
2023-07-30T05:54:52.694Z,16.32
2023-07-30T05:55:52.712Z,16.36
2023-07-30T05:56:52.702Z,16.35
2023-07-30T05:57:52.641Z,16.35
2023-07-30T05:58:52.614Z,16.39
2023-07-30T05:59:52.610Z,16.41
2023-07-30T06:00:52.698Z,16.41
2023-07-30T06:01:52.699Z,16.38
2023-07-30T06:02:52.614Z,16.38
2023-07-30T06:03:52.646Z,16.38
2023-07-30T06:04:52.551Z,16.42
2023-07-30T06:05:52.632Z,16.33
2023-07-30T06:06:52.618Z,16.38
2023-07-30T06:07:52.562Z,16.35
2023-07-30T06:08:52.510Z,16.42
2023-07-30T06:09:52.515Z,16.36
2023-07-30T06:10:52.494Z,16.38
2023-07-30T06:11:52.591Z,16.33
2023-07-30T06:12:52.546Z,16.33
2023-07-30T06:13:52.457Z,16.29
2023-07-30T06:14:52.436Z,16.41
2023-07-30T06:15:52.654Z,16.38
2023-07-30T06:16:52.562Z,16.36
2023-07-30T06:17:52.466Z,16.29
2023-07-30T06:18:52.431Z,16.41
2023-07-30T06:19:52.428Z,16.41
2023-07-30T06:20:52.459Z,16.42
2023-07-30T06:21:52.435Z,16.43
2023-07-30T06:22:52.389Z,16.39
2023-07-30T06:23:52.384Z,16.38
2023-07-30T06:24:52.387Z,16.39
2023-07-30T06:25:52.428Z,16.43
2023-07-30T06:26:52.353Z,16.46
2023-07-30T06:27:52.521Z,16.47
2023-07-30T06:28:52.370Z,16.35
2023-07-30T06:29:52.294Z,16.39
2023-07-30T06:30:52.454Z,16.43
2023-07-30T06:31:52.324Z,16.39
2023-07-30T06:32:52.374Z,16.39
2023-07-30T06:33:52.293Z,16.51
2023-07-30T06:34:52.247Z,16.39
2023-07-30T06:35:52.234Z,16.38
2023-07-30T06:36:52.281Z,16.46
2023-07-30T06:37:52.238Z,16.51
2023-07-30T06:38:52.254Z,16.53
2023-07-30T06:39:52.187Z,16.53
2023-07-30T06:40:52.168Z,16.53
2023-07-30T06:41:52.162Z,16.56
2023-07-30T06:42:52.180Z,16.68
2023-07-30T06:43:52.214Z,16.60
2023-07-30T06:44:52.131Z,16.64
2023-07-30T06:45:52.122Z,16.65
2023-07-30T06:46:52.160Z,16.66
2023-07-30T06:47:52.292Z,16.72
2023-07-30T06:48:52.111Z,16.71
2023-07-30T06:49:52.082Z,16.75
2023-07-30T06:50:52.203Z,16.71
2023-07-30T06:51:52.149Z,16.64
2023-07-30T06:52:52.066Z,16.71
2023-07-30T06:53:52.046Z,16.69
2023-07-30T06:54:52.091Z,16.65
2023-07-30T06:55:52.019Z,16.65
2023-07-30T06:56:52.039Z,16.78
2023-07-30T06:57:52.029Z,16.72
2023-07-30T06:58:51.977Z,16.87
2023-07-30T06:59:52.096Z,16.79
2023-07-30T07:00:52.022Z,16.83
2023-07-30T07:01:51.951Z,16.81
2023-07-30T07:02:51.991Z,16.87
2023-07-30T07:03:52.005Z,16.87
2023-07-30T07:04:51.929Z,16.90
2023-07-30T07:05:51.910Z,16.93
2023-07-30T07:06:51.966Z,16.94
2023-07-30T07:07:51.886Z,16.89
2023-07-30T07:08:51.952Z,16.93
2023-07-30T07:09:51.873Z,16.94
2023-07-30T07:10:51.959Z,17.04
2023-07-30T07:11:51.844Z,17.02
2023-07-30T07:12:51.825Z,17.09
2023-07-30T07:13:51.851Z,17.09
2023-07-30T07:14:51.817Z,17.01
2023-07-30T07:15:51.826Z,17.06
2023-07-30T07:16:51.895Z,17.08
2023-07-30T07:17:51.816Z,17.01
2023-07-30T07:18:51.769Z,17.09
2023-07-30T07:19:51.833Z,17.08
2023-07-30T07:20:51.766Z,17.06
2023-07-30T07:21:51.865Z,17.02
2023-07-30T07:22:51.727Z,17.04
2023-07-30T07:23:51.886Z,17.05
2023-07-30T07:24:51.712Z,17.04
2023-07-30T07:25:51.705Z,17.09
2023-07-30T07:26:51.729Z,16.99
2023-07-30T07:27:51.679Z,16.97
2023-07-30T07:28:51.732Z,16.93
2023-07-30T07:29:51.682Z,16.91
2023-07-30T07:30:51.747Z,16.96
2023-07-30T07:31:51.644Z,16.97
2023-07-30T07:32:51.716Z,16.93
2023-07-30T07:33:51.638Z,16.96
2023-07-30T07:34:51.584Z,16.91
2023-07-30T07:35:51.649Z,16.93
2023-07-30T07:36:51.615Z,17.02
2023-07-30T07:37:51.620Z,17.01
2023-07-30T07:38:51.563Z,16.91
2023-07-30T07:39:51.564Z,17.06
2023-07-30T07:40:52.402Z,17.12
2023-07-30T07:41:51.533Z,17.11
2023-07-30T07:42:51.560Z,17.08
2023-07-30T07:43:51.512Z,17.22
2023-07-30T07:44:51.499Z,17.08
2023-07-30T07:45:51.504Z,17.20
2023-07-30T07:46:51.475Z,17.15
2023-07-30T07:47:51.755Z,17.15
2023-07-30T07:48:51.508Z,17.19
2023-07-30T07:49:51.435Z,17.15
2023-07-30T07:50:51.439Z,17.12
2023-07-30T07:51:51.432Z,17.23
2023-07-30T07:52:51.486Z,17.27
2023-07-30T07:53:51.391Z,17.26
2023-07-30T07:54:51.449Z,17.23
2023-07-30T07:55:51.391Z,17.22
2023-07-30T07:56:51.384Z,17.19
2023-07-30T07:57:51.430Z,17.23
2023-07-30T07:58:51.342Z,17.26
2023-07-30T07:59:51.354Z,17.36
2023-07-30T08:00:51.386Z,17.31
2023-07-30T08:01:51.398Z,17.34
2023-07-30T08:02:51.841Z,17.33
2023-07-30T08:03:51.391Z,17.41
2023-07-30T08:04:51.340Z,17.39
2023-07-30T08:05:51.306Z,17.46
2023-07-30T08:06:51.276Z,17.34
2023-07-30T08:07:51.301Z,17.33
2023-07-30T08:08:51.281Z,17.36
2023-07-30T08:09:51.304Z,17.34
2023-07-30T08:10:51.219Z,17.31
2023-07-30T08:11:51.208Z,17.34
2023-07-30T08:12:51.266Z,17.31
2023-07-30T08:13:51.192Z,17.34
2023-07-30T08:14:51.209Z,17.41
2023-07-30T08:15:51.202Z,17.39
2023-07-30T08:16:51.150Z,17.42
2023-07-30T08:17:51.330Z,17.48
2023-07-30T08:18:51.121Z,17.52
2023-07-30T08:19:51.190Z,17.42
2023-07-30T08:20:51.114Z,17.45
2023-07-30T08:21:51.111Z,17.48
2023-07-30T08:22:51.089Z,17.46
2023-07-30T08:23:51.078Z,17.49
2023-07-30T08:24:51.567Z,17.51
2023-07-30T08:25:51.317Z,17.59
2023-07-30T08:26:51.058Z,17.63
2023-07-30T08:27:51.055Z,17.56
2023-07-30T08:28:51.095Z,17.65
2023-07-30T08:29:51.018Z,17.64
2023-07-30T08:30:51.001Z,17.68
2023-07-30T08:31:51.118Z,17.67
2023-07-30T08:32:51.022Z,17.82
2023-07-30T08:33:51.015Z,17.68
2023-07-30T08:34:50.969Z,17.82
2023-07-30T08:35:50.987Z,17.79
2023-07-30T08:36:51.024Z,17.83
2023-07-30T08:37:50.919Z,17.80
2023-07-30T08:38:50.967Z,17.79
2023-07-30T08:39:50.910Z,17.82
2023-07-30T08:40:50.890Z,17.79
2023-07-30T08:41:50.903Z,17.79
2023-07-30T08:42:50.864Z,17.83
2023-07-30T08:43:50.893Z,17.83
2023-07-30T08:44:50.857Z,17.82
2023-07-30T08:45:50.867Z,17.83
2023-07-30T08:46:51.606Z,17.92
2023-07-30T08:47:50.852Z,17.95
2023-07-30T08:48:51.186Z,17.92
2023-07-30T08:49:50.851Z,18.10
2023-07-30T08:50:50.830Z,18.05
2023-07-30T08:51:50.780Z,18.19
2023-07-30T08:52:50.846Z,18.22
2023-07-30T08:53:50.746Z,18.23
2023-07-30T08:54:52.808Z,18.20
2023-07-30T08:55:50.731Z,18.18
2023-07-30T08:56:50.751Z,18.20
2023-07-30T08:57:50.704Z,18.26
2023-07-30T08:58:50.743Z,18.18
2023-07-30T08:59:50.714Z,18.18
2023-07-30T09:00:52.793Z,18.16
2023-07-30T09:01:50.736Z,18.19
2023-07-30T09:02:50.687Z,18.13
2023-07-30T09:03:50.659Z,18.22
2023-07-30T09:04:50.688Z,18.16
2023-07-30T09:05:50.643Z,18.20
2023-07-30T09:06:53.521Z,18.26
2023-07-30T09:07:50.843Z,18.31
2023-07-30T09:08:50.646Z,18.47
2023-07-30T09:09:50.568Z,18.35
2023-07-30T09:10:50.559Z,18.43
2023-07-30T09:11:50.573Z,18.40
2023-07-30T09:12:50.554Z,18.41
2023-07-30T09:13:50.603Z,18.41
2023-07-30T09:14:50.539Z,18.35
2023-07-30T09:15:50.543Z,18.35
2023-07-30T09:16:50.509Z,18.33
2023-07-30T09:17:50.530Z,18.33
2023-07-30T09:18:52.833Z,18.38
2023-07-30T09:19:50.473Z,18.29
2023-07-30T09:20:50.484Z,18.29
2023-07-30T09:21:50.455Z,18.28
2023-07-30T09:22:50.547Z,18.29
2023-07-30T09:23:50.487Z,18.29
2023-07-30T09:24:51.557Z,18.33
2023-07-30T09:25:50.431Z,18.31
2023-07-30T09:26:50.483Z,18.34
2023-07-30T09:27:50.436Z,18.33
2023-07-30T09:28:50.373Z,18.40
2023-07-30T09:29:50.544Z,18.52
2023-07-30T09:30:51.674Z,18.52
2023-07-30T09:31:50.845Z,18.59
2023-07-30T09:32:50.486Z,18.62
2023-07-30T09:33:50.327Z,18.60
2023-07-30T09:34:50.436Z,18.73
2023-07-30T09:35:50.358Z,18.75
2023-07-30T09:36:52.495Z,18.81
2023-07-30T09:37:50.294Z,18.99
2023-07-30T09:38:50.273Z,18.96
2023-07-30T09:39:50.282Z,19.12
2023-07-30T09:40:50.397Z,19.19
2023-07-30T09:41:50.284Z,19.18
2023-07-30T09:42:52.215Z,19.27
2023-07-30T09:43:50.209Z,19.18
2023-07-30T09:44:50.596Z,19.19
2023-07-30T09:45:50.377Z,19.21
2023-07-30T09:46:50.306Z,19.19
2023-07-30T09:47:50.279Z,19.26
2023-07-30T09:48:50.155Z,19.18
2023-07-30T09:49:50.172Z,19.24
2023-07-30T09:50:51.201Z,19.30
2023-07-30T09:51:50.133Z,19.37
2023-07-30T09:52:50.211Z,19.39
2023-07-30T09:53:50.148Z,19.37
2023-07-30T09:54:52.466Z,19.31
2023-07-30T09:55:50.125Z,19.39
2023-07-30T09:56:50.084Z,19.41
2023-07-30T09:57:50.164Z,19.51
2023-07-30T09:58:50.376Z,19.45
2023-07-30T09:59:50.516Z,19.52
2023-07-30T10:00:50.131Z,19.56
2023-07-30T10:01:50.048Z,19.58
2023-07-30T10:02:50.146Z,19.59
2023-07-30T10:03:50.012Z,19.71
2023-07-30T10:04:50.098Z,19.66
2023-07-30T10:05:50.012Z,19.69
2023-07-30T10:06:49.994Z,19.73
2023-07-30T10:07:50.041Z,19.73
2023-07-30T10:08:49.960Z,19.82
2023-07-30T10:09:49.948Z,19.86
2023-07-30T10:10:49.944Z,19.84
2023-07-30T10:11:51.504Z,19.85
2023-07-30T10:12:50.004Z,19.89
2023-07-30T10:13:49.927Z,19.84
2023-07-30T10:14:49.902Z,19.88
2023-07-30T10:15:49.876Z,19.91
2023-07-30T10:16:49.871Z,19.92
2023-07-30T10:17:49.913Z,19.91
2023-07-30T10:18:49.923Z,19.94
2023-07-30T10:19:49.833Z,20.02
2023-07-30T10:20:49.828Z,20.03
2023-07-30T10:21:49.813Z,20.06
2023-07-30T10:22:49.824Z,20.10
2023-07-30T10:23:49.841Z,20.13
2023-07-30T10:24:50.780Z,20.06
2023-07-30T10:25:49.769Z,20.03
2023-07-30T10:26:49.752Z,20.06
2023-07-30T10:27:50.845Z,20.04
2023-07-30T10:28:49.776Z,20.09
2023-07-30T10:29:49.772Z,20.07
2023-07-30T10:30:49.734Z,20.16
2023-07-30T10:31:49.701Z,20.16
2023-07-30T10:32:49.718Z,20.18
2023-07-30T10:33:49.738Z,20.21
2023-07-30T10:34:49.781Z,20.14
2023-07-30T10:35:49.663Z,20.22
2023-07-30T10:36:49.707Z,20.22
2023-07-30T10:37:49.661Z,20.22
2023-07-30T10:38:49.673Z,20.31
2023-07-30T10:39:49.616Z,20.36
2023-07-30T10:40:49.731Z,20.44
2023-07-30T10:41:49.735Z,20.40
2023-07-30T10:42:49.666Z,20.55
2023-07-30T10:43:49.588Z,20.63
2023-07-30T10:44:49.568Z,20.59
2023-07-30T10:45:49.550Z,20.70
2023-07-30T10:46:49.737Z,20.77
2023-07-30T10:47:49.650Z,20.82
2023-07-30T10:48:49.766Z,20.66
2023-07-30T10:49:49.544Z,20.88
2023-07-30T10:50:49.490Z,20.92
2023-07-30T10:51:49.520Z,21.12
2023-07-30T10:52:49.465Z,21.20
2023-07-30T10:53:49.494Z,21.22
2023-07-30T10:54:49.530Z,21.45
2023-07-30T10:55:49.474Z,21.42
2023-07-30T10:56:49.465Z,21.33
2023-07-30T10:57:49.429Z,21.36
2023-07-30T10:58:49.467Z,21.40
2023-07-30T10:59:49.409Z,21.36
2023-07-30T11:00:49.392Z,21.36
2023-07-30T11:01:49.470Z,21.35
2023-07-30T11:02:49.496Z,21.37
2023-07-30T11:03:49.505Z,21.39
2023-07-30T11:04:49.341Z,21.35
2023-07-30T11:05:49.337Z,21.35
2023-07-30T11:06:49.388Z,21.39
2023-07-30T11:07:49.324Z,21.30
2023-07-30T11:08:49.312Z,21.21
2023-07-30T11:09:49.353Z,21.11
2023-07-30T11:10:49.296Z,21.18
2023-07-30T11:11:49.280Z,21.24
2023-07-30T11:12:49.303Z,21.21
2023-07-30T11:13:49.252Z,21.21
2023-07-30T11:14:50.299Z,21.20
2023-07-30T11:15:49.239Z,21.14
2023-07-30T11:16:49.233Z,21.15
2023-07-30T11:17:49.307Z,21.33
2023-07-30T11:18:49.263Z,21.22
2023-07-30T11:19:49.197Z,21.32
2023-07-30T11:20:49.197Z,21.33
2023-07-30T11:21:50.682Z,21.30
2023-07-30T11:22:49.155Z,21.33
2023-07-30T11:23:49.190Z,21.29
2023-07-30T11:24:49.132Z,21.30
2023-07-30T11:25:49.128Z,21.37
2023-07-30T11:26:49.219Z,21.42
2023-07-30T11:27:49.106Z,21.36
2023-07-30T11:28:49.115Z,21.33
2023-07-30T11:29:49.081Z,21.22
2023-07-30T11:30:49.140Z,21.29
2023-07-30T11:31:49.105Z,21.29
2023-07-30T11:32:49.183Z,21.22
2023-07-30T11:33:49.343Z,21.24
2023-07-30T11:34:49.085Z,21.30
2023-07-30T11:35:49.025Z,21.24
2023-07-30T11:36:49.888Z,21.30
2023-07-30T11:37:48.998Z,21.29
2023-07-30T11:38:49.124Z,21.42
2023-07-30T11:39:49.338Z,21.37
2023-07-30T11:40:49.044Z,21.52
2023-07-30T11:41:48.979Z,21.60
2023-07-30T11:42:48.987Z,21.54
2023-07-30T11:43:48.950Z,21.62
2023-07-30T11:44:49.011Z,21.64
2023-07-30T11:45:48.911Z,21.60
2023-07-30T11:46:48.978Z,21.57
2023-07-30T11:47:48.964Z,21.52
2023-07-30T11:48:48.900Z,21.48
2023-07-30T11:49:48.915Z,21.50
2023-07-30T11:50:48.855Z,21.45
2023-07-30T11:51:48.874Z,21.45
2023-07-30T11:52:49.064Z,21.40
2023-07-30T11:53:48.841Z,21.37
2023-07-30T11:54:48.812Z,21.33
2023-07-30T11:55:48.821Z,21.27
2023-07-30T11:56:48.789Z,21.18
2023-07-30T11:57:48.809Z,21.11
2023-07-30T11:58:48.829Z,20.96
2023-07-30T11:59:48.842Z,20.92
2023-07-30T12:00:48.759Z,20.85
2023-07-30T12:01:48.914Z,20.77
2023-07-30T12:02:48.760Z,20.67
2023-07-30T12:03:48.867Z,20.75
2023-07-30T12:04:53.220Z,20.69
2023-07-30T12:05:49.675Z,20.65
2023-07-30T12:06:48.767Z,20.66
2023-07-30T12:07:48.699Z,20.67
2023-07-30T12:08:48.741Z,20.67
2023-07-30T12:09:48.642Z,20.69
2023-07-30T12:10:48.704Z,20.87
2023-07-30T12:11:48.644Z,20.85
2023-07-30T12:12:48.610Z,20.96
2023-07-30T12:13:48.651Z,20.95
2023-07-30T12:14:48.639Z,20.97
2023-07-30T12:15:48.600Z,20.95
2023-07-30T12:16:48.575Z,20.96
2023-07-30T12:17:48.632Z,20.92
2023-07-30T12:18:48.554Z,20.97
2023-07-30T12:19:48.611Z,21.05
2023-07-30T12:20:48.571Z,21.14
2023-07-30T12:21:48.534Z,21.12
2023-07-30T12:22:48.596Z,21.06
2023-07-30T12:23:48.491Z,21.07
2023-07-30T12:24:48.528Z,21.12
2023-07-30T12:25:48.500Z,21.20
2023-07-30T12:26:48.465Z,21.25
2023-07-30T12:27:48.502Z,21.30
2023-07-30T12:28:48.465Z,21.29
2023-07-30T12:29:48.457Z,21.29
2023-07-30T12:30:48.418Z,21.29
2023-07-30T12:31:48.598Z,21.36
2023-07-30T12:32:48.456Z,21.32
2023-07-30T12:33:48.393Z,21.25
2023-07-30T12:34:48.495Z,21.32
2023-07-30T12:35:48.552Z,21.35
2023-07-30T12:36:48.351Z,21.22
2023-07-30T12:37:48.444Z,21.24
2023-07-30T12:38:48.378Z,21.11
2023-07-30T12:39:48.327Z,21.21
2023-07-30T12:40:48.369Z,21.32
2023-07-30T12:41:48.300Z,21.21
2023-07-30T12:42:48.316Z,21.29
2023-07-30T12:43:48.329Z,21.22
2023-07-30T12:44:48.290Z,21.29
2023-07-30T12:45:48.345Z,21.21
2023-07-30T12:46:48.274Z,21.18
2023-07-30T12:47:48.262Z,21.18
2023-07-30T12:48:48.285Z,21.06
2023-07-30T12:49:48.232Z,21.18
2023-07-30T12:50:48.229Z,21.21
2023-07-30T12:51:48.283Z,21.20
2023-07-30T12:52:48.184Z,21.22